Time;durP1;ratioP1;P1;durP2;ratioP2;P2;SDS_P1;SDS_P2;PMS_P1;PMS_P2;Temp;Humidity;BMP_temperature;BMP_pressure;BME280_temperature;BME280_humidity;BME280_pressure;Samples;Min_cycle;Max_cycle;Signal;HPM_P1;HPM_P2
2021/11/10 00:01:39;;;;;;;25.93;17.90;;;5.20;99.90;;;;;;5124608;27;20237;-77
2021/11/10 00:04:06;;;;;;;26.77;18.40;;;5.20;99.90;;;;;;5132817;27;20280;-77
2021/11/10 00:06:33;;;;;;;24.13;17.93;;;5.30;99.90;;;;;;5132589;27;20707;-76
2021/11/10 00:09:00;;;;;;;26.67;18.13;;;5.30;99.90;;;;;;5132900;27;20204;-76
2021/11/10 00:11:27;;;;;;;22.47;17.77;;;5.20;99.90;;;;;;5132334;27;20616;-76
2021/11/10 00:13:55;;;;;;;29.00;19.07;;;5.10;99.90;;;;;;5132123;27;20295;-76
2021/11/10 00:16:22;;;;;;;25.57;18.63;;;5.20;99.90;;;;;;5132737;27;20276;-76
2021/11/10 00:18:51;;;;;;;26.30;18.80;;;5.30;99.90;;;;;;5133071;27;20225;-77
2021/11/10 00:21:18;;;;;;;26.87;17.60;;;5.20;99.90;;;;;;5133019;27;20251;-76
2021/11/10 00:23:45;;;;;;;25.00;17.97;;;5.10;99.90;;;;;;5132438;27;20261;-76
2021/11/10 00:26:12;;;;;;;27.03;16.63;;;5.00;99.90;;;;;;5133045;27;20276;-76
2021/11/10 00:28:39;;;;;;;24.83;17.70;;;5.00;99.90;;;;;;5132095;27;20261;-76
2021/11/10 00:31:07;;;;;;;27.77;18.03;;;5.00;99.90;;;;;;5132861;27;20288;-77
2021/11/10 00:33:34;;;;;;;29.20;18.93;;;5.10;99.90;;;;;;5132048;27;20218;-77
2021/11/10 00:36:02;;;;;;;24.23;17.13;;;5.00;99.90;;;;;;5131369;27;20755;-77
2021/11/10 00:38:29;;;;;;;23.67;16.57;;;5.00;99.90;;;;;;5132823;27;20224;-77
2021/11/10 00:40:56;;;;;;;23.73;16.83;;;4.80;99.90;;;;;;5131778;27;20290;-77
2021/11/10 00:43:23;;;;;;;20.43;15.67;;;4.70;99.90;;;;;;5132569;27;20668;-77
2021/11/10 00:45:50;;;;;;;21.97;15.50;;;4.60;99.90;;;;;;5141163;27;20204;-76
2021/11/10 00:48:18;;;;;;;25.60;17.13;;;4.60;99.90;;;;;;5135585;27;20197;-76
2021/11/10 00:50:46;;;;;;;27.43;18.03;;;4.50;99.90;;;;;;5136234;27;20228;-77
2021/11/10 00:53:13;;;;;;;25.50;17.47;;;4.40;99.90;;;;;;5136133;27;20692;-77
2021/11/10 00:55:41;;;;;;;23.73;17.67;;;4.40;99.90;;;;;;5146594;27;20742;-76
2021/11/10 00:58:09;;;;;;;26.10;18.43;;;4.50;99.90;;;;;;5136904;27;20280;-76
2021/11/10 01:00:36;;;;;;;24.93;18.47;;;4.70;99.90;;;;;;5136261;27;20201;-76
2021/11/10 01:03:04;;;;;;;28.03;18.40;;;4.90;99.90;;;;;;5136545;27;20197;-76
2021/11/10 01:05:34;;;;;;;24.73;17.93;;;5.00;99.90;;;;;;5140207;27;20216;-76
2021/11/10 01:08:01;;;;;;;28.67;17.83;;;5.10;99.90;;;;;;5135775;27;20197;-77
2021/11/10 01:10:29;;;;;;;26.53;17.43;;;5.20;99.90;;;;;;5135824;27;20192;-76
2021/11/10 01:12:56;;;;;;;26.53;17.33;;;5.30;99.90;;;;;;5135325;27;20304;-77
2021/11/10 01:15:24;;;;;;;26.87;17.53;;;5.40;99.90;;;;;;5136074;27;20300;-76
2021/11/10 01:17:51;;;;;;;26.33;16.80;;;5.50;99.90;;;;;;5136178;27;20256;-76
2021/11/10 01:20:18;;;;;;;30.67;16.00;;;5.70;99.90;;;;;;5135908;27;20344;-76
2021/11/10 01:22:47;;;;;;;23.47;16.13;;;5.70;99.90;;;;;;5134599;27;20194;-76
2021/11/10 01:25:14;;;;;;;25.20;16.07;;;5.80;99.90;;;;;;5135616;27;20232;-77
2021/11/10 01:27:42;;;;;;;24.77;15.33;;;5.80;99.90;;;;;;5135950;27;20334;-76
2021/11/10 01:30:10;;;;;;;28.33;16.13;;;5.90;99.90;;;;;;5135576;27;20276;-76
2021/11/10 01:32:38;;;;;;;26.87;15.37;;;5.90;99.90;;;;;;5135900;27;20736;-77
2021/11/10 01:35:06;;;;;;;26.23;16.00;;;6.00;99.90;;;;;;5135439;27;20230;-76
2021/11/10 01:37:33;;;;;;;29.10;15.90;;;6.00;99.90;;;;;;5135985;27;20288;-76
2021/11/10 01:40:02;;;;;;;24.57;14.73;;;6.00;99.90;;;;;;5135573;27;20303;-77
2021/11/10 01:42:30;;;;;;;25.57;14.33;;;6.10;99.90;;;;;;5135019;27;20727;-76
2021/11/10 01:44:58;;;;;;;23.17;13.97;;;6.10;99.90;;;;;;5136020;27;20194;-76
2021/11/10 01:47:25;;;;;;;25.73;14.40;;;6.20;99.90;;;;;;5135408;27;20291;-76
2021/11/10 01:49:52;;;;;;;22.77;13.47;;;6.20;99.90;;;;;;5134583;27;20286;-76
2021/11/10 01:52:19;;;;;;;21.30;13.30;;;6.20;99.90;;;;;;5134460;27;20231;-76
2021/11/10 01:54:46;;;;;;;20.87;13.03;;;6.20;99.90;;;;;;5135397;27;20299;-76
2021/11/10 01:57:15;;;;;;;28.00;12.57;;;6.20;99.90;;;;;;5134291;27;20696;-76
2021/11/10 01:59:43;;;;;;;25.70;12.27;;;6.30;99.90;;;;;;5135324;27;20260;-77
2021/11/10 02:02:19;;;;;;;21.33;11.73;;;6.30;99.90;;;;;;5135259;27;20241;-77
2021/11/10 02:04:47;;;;;;;21.07;11.67;;;6.30;99.90;;;;;;5134107;27;20191;-76
2021/11/10 02:07:14;;;;;;;25.47;12.20;;;6.40;99.90;;;;;;5135387;27;20204;-77
2021/11/10 02:09:42;;;;;;;22.53;11.50;;;6.30;99.90;;;;;;5134566;27;20286;-76
2021/11/10 02:12:09;;;;;;;21.17;11.43;;;6.30;99.90;;;;;;5135379;27;20284;-76
2021/11/10 02:14:39;;;;;;;23.30;11.43;;;6.40;99.90;;;;;;5134154;27;20246;-76
2021/11/10 02:17:07;;;;;;;23.63;11.13;;;6.30;99.90;;;;;;5134770;27;20229;-77
2021/11/10 02:19:35;;;;;;;19.17;11.70;;;6.40;99.90;;;;;;5134761;27;20663;-76
2021/11/10 02:22:03;;;;;;;21.83;11.30;;;6.50;99.90;;;;;;5135079;27;20279;-77
2021/11/10 02:24:32;;;;;;;24.17;11.53;;;6.50;99.90;;;;;;5140553;27;20591;-77
2021/11/10 02:27:00;;;;;;;22.10;11.60;;;6.50;99.90;;;;;;5134804;27;20195;-76
2021/11/10 02:29:29;;;;;;;25.83;11.90;;;6.50;99.90;;;;;;5131513;27;20256;-77
2021/11/10 02:31:58;;;;;;;19.13;11.23;;;6.50;99.90;;;;;;5134625;27;20223;-76
2021/11/10 02:34:25;;;;;;;22.40;11.43;;;6.50;99.90;;;;;;5134658;27;20270;-77
2021/11/10 02:36:52;;;;;;;20.07;10.93;;;6.50;99.90;;;;;;5134059;27;20235;-77
2021/11/10 02:39:22;;;;;;;19.77;10.90;;;6.40;99.90;;;;;;5133581;27;20220;-76
2021/11/10 02:41:52;;;;;;;24.07;11.03;;;6.30;99.90;;;;;;5134031;27;20643;-77
2021/11/10 02:44:21;;;;;;;21.80;11.00;;;6.40;99.90;;;;;;5134661;27;20223;-76
2021/11/10 02:46:51;;;;;;;18.83;10.57;;;6.20;99.90;;;;;;5133773;27;20285;-77
2021/11/10 02:49:19;;;;;;;25.00;10.87;;;6.20;99.90;;;;;;5134320;27;20211;-77
2021/11/10 02:51:57;;;;;;;22.17;10.50;;;6.00;99.90;;;;;;5133404;27;20209;-77
2021/11/10 02:54:26;;;;;;;20.53;10.10;;;5.80;99.90;;;;;;5132787;27;20654;-76
2021/11/10 02:56:53;;;;;;;20.23;9.77;;;5.60;99.90;;;;;;5133575;27;20286;-77
2021/11/10 02:59:21;;;;;;;17.10;9.37;;;5.40;99.90;;;;;;5134217;27;20206;-77
2021/11/10 03:01:49;;;;;;;17.83;9.33;;;5.50;99.90;;;;;;5133612;27;20368;-76
2021/11/10 03:04:20;;;;;;;16.73;9.40;;;5.20;99.90;;;;;;5134240;27;20198;-76
2021/11/10 03:06:48;;;;;;;18.50;10.17;;;5.20;99.90;;;;;;5133052;27;20688;-77
2021/11/10 03:09:17;;;;;;;17.77;9.57;;;5.10;99.90;;;;;;5133140;27;20289;-76
2021/11/10 03:11:46;;;;;;;16.67;10.00;;;5.00;99.90;;;;;;5133988;27;20259;-76
2021/11/10 03:14:14;;;;;;;18.73;10.23;;;5.00;99.90;;;;;;5133113;27;20226;-76
2021/11/10 03:16:42;;;;;;;18.20;9.43;;;4.90;99.90;;;;;;5133640;27;20233;-76
2021/11/10 03:19:09;;;;;;;18.53;9.30;;;4.90;99.90;;;;;;5133361;27;20201;-76
2021/11/10 03:21:36;;;;;;;18.47;9.27;;;4.70;99.90;;;;;;5133272;27;20276;-76
2021/11/10 03:24:04;;;;;;;18.47;10.07;;;4.80;99.90;;;;;;5137238;27;20282;-76
2021/11/10 03:26:32;;;;;;;18.47;10.30;;;4.80;99.90;;;;;;5132914;27;20283;-76
2021/11/10 03:29:02;;;;;;;18.80;9.67;;;4.80;99.90;;;;;;5133011;27;20312;-76
2021/11/10 03:31:31;;;;;;;18.43;9.77;;;4.60;99.90;;;;;;5125356;27;20193;-77
2021/11/10 03:33:58;;;;;;;18.23;9.83;;;4.60;99.90;;;;;;5134534;27;20312;-76
2021/11/10 03:36:25;;;;;;;21.37;10.33;;;4.60;99.90;;;;;;5133106;27;20197;-76
2021/11/10 03:38:52;;;;;;;21.13;9.80;;;4.50;99.90;;;;;;5133590;27;20275;-76
2021/11/10 03:41:19;;;;;;;21.10;10.40;;;4.40;99.90;;;;;;5133216;27;20228;-76
2021/11/10 03:43:46;;;;;;;20.07;10.73;;;4.40;99.90;;;;;;5137966;27;20232;-76
2021/11/10 03:46:15;;;;;;;19.80;10.23;;;4.40;99.90;;;;;;5133331;27;20294;-76
2021/11/10 03:48:42;;;;;;;19.90;10.50;;;4.50;99.90;;;;;;5133208;27;20193;-76
2021/11/10 03:51:09;;;;;;;17.13;10.17;;;4.30;99.90;;;;;;5132920;27;20211;-76
2021/11/10 03:53:37;;;;;;;19.27;10.63;;;4.30;99.90;;;;;;5132805;27;20313;-76
2021/11/10 03:56:04;;;;;;;20.40;10.40;;;4.30;99.90;;;;;;5133240;27;20203;-76
2021/11/10 03:58:33;;;;;;;20.27;10.37;;;4.40;99.90;;;;;;5132645;27;20695;-76
2021/11/10 04:01:00;;;;;;;22.00;11.37;;;4.30;99.90;;;;;;5132713;27;20196;-76
2021/11/10 04:03:29;;;;;;;16.07;10.43;;;4.10;99.90;;;;;;5132698;27;20224;-76
2021/11/10 04:05:56;;;;;;;16.77;10.40;;;4.00;99.90;;;;;;5132707;27;20197;-77
2021/11/10 04:08:23;;;;;;;18.10;9.83;;;3.90;99.90;;;;;;5132614;27;20276;-77
2021/11/10 04:10:49;;;;;;;22.33;10.67;;;3.80;99.90;;;;;;5132714;27;20629;-76
2021/11/10 04:13:17;;;;;;;18.57;9.73;;;3.70;99.90;;;;;;5132544;27;20287;-76
2021/11/10 04:15:44;;;;;;;17.20;10.37;;;3.70;99.90;;;;;;5132320;27;20282;-77
2021/11/10 04:18:12;;;;;;;19.57;10.53;;;3.70;99.90;;;;;;5132335;27;20288;-76
2021/11/10 04:20:40;;;;;;;17.07;10.60;;;3.70;99.90;;;;;;5132462;27;20298;-76
2021/11/10 04:23:07;;;;;;;19.33;11.03;;;3.70;99.90;;;;;;5139658;27;20295;-76
2021/11/10 04:25:34;;;;;;;19.60;10.70;;;3.60;99.90;;;;;;5132356;27;20278;-77
2021/11/10 04:28:01;;;;;;;19.27;10.87;;;3.60;99.90;;;;;;5132456;27;20258;-76
2021/11/10 04:30:29;;;;;;;18.87;10.93;;;3.50;99.90;;;;;;5136972;27;20570;-76
2021/11/10 04:32:56;;;;;;;20.33;11.00;;;3.50;99.90;;;;;;5132070;27;20283;-76
2021/11/10 04:35:23;;;;;;;17.73;10.97;;;3.40;99.90;;;;;;5132275;27;20306;-76
2021/11/10 04:37:52;;;;;;;21.20;11.57;;;3.40;99.90;;;;;;5132077;28;20233;-76
2021/11/10 04:40:18;;;;;;;21.47;12.00;;;3.40;99.90;;;;;;5132706;27;20283;-76
2021/11/10 04:42:45;;;;;;;20.53;11.57;;;3.50;99.90;;;;;;5132305;28;20246;-76
2021/11/10 04:45:17;;;;;;;18.23;11.10;;;3.50;99.90;;;;;;5132525;28;20651;-76
2021/11/10 04:47:45;;;;;;;19.20;11.97;;;3.40;99.90;;;;;;5132057;28;20198;-76
2021/11/10 04:50:12;;;;;;;16.87;10.97;;;3.30;99.90;;;;;;5132063;28;20227;-76
2021/11/10 04:52:40;;;;;;;18.50;11.50;;;3.30;99.90;;;;;;5132584;27;20247;-76
2021/11/10 04:55:09;;;;;;;21.07;11.50;;;3.30;99.90;;;;;;5129858;28;20849;-76
2021/11/10 04:57:36;;;;;;;20.00;11.93;;;3.20;99.90;;;;;;5133309;27;20227;-76
2021/11/10 05:00:06;;;;;;;19.23;11.70;;;3.20;99.90;;;;;;5132485;27;20236;-76
2021/11/10 05:02:33;;;;;;;17.27;11.40;;;3.10;99.90;;;;;;5132067;27;20203;-77
2021/11/10 05:05:00;;;;;;;17.27;11.03;;;3.00;99.90;;;;;;5131448;28;20222;-77
2021/11/10 05:07:27;;;;;;;19.83;11.57;;;3.00;99.90;;;;;;5131913;27;20227;-76
2021/11/10 05:09:54;;;;;;;19.90;11.80;;;2.90;99.90;;;;;;5132301;28;20201;-76
2021/11/10 05:12:22;;;;;;;21.90;14.40;;;3.00;99.90;;;;;;5132113;27;20233;-77
2021/11/10 05:14:52;;;;;;;19.77;13.13;;;3.20;99.90;;;;;;5131677;27;20318;-76
2021/11/10 05:17:19;;;;;;;19.17;12.67;;;3.10;99.90;;;;;;5131582;28;20287;-76
2021/11/10 05:19:47;;;;;;;18.00;11.80;;;3.00;99.90;;;;;;5132500;28;20571;-76
2021/11/10 05:22:14;;;;;;;19.37;11.77;;;3.00;99.90;;;;;;5129965;28;20657;-76
2021/11/10 05:24:42;;;;;;;15.60;11.23;;;2.90;99.90;;;;;;5132310;28;20231;-76
2021/11/10 05:27:09;;;;;;;20.00;11.80;;;2.90;99.90;;;;;;5131390;27;20732;-76
2021/11/10 05:29:37;;;;;;;21.20;11.87;;;2.80;99.90;;;;;;5123928;27;20222;-76
2021/11/10 05:32:05;;;;;;;23.67;11.93;;;2.80;99.90;;;;;;5134523;27;20281;-77
2021/11/10 05:34:32;;;;;;;18.47;11.53;;;2.80;99.90;;;;;;5135588;27;20694;-76
2021/11/10 05:36:59;;;;;;;17.90;11.03;;;2.70;99.90;;;;;;5135546;27;20297;-76
2021/11/10 05:39:26;;;;;;;18.47;10.63;;;2.60;99.90;;;;;;5135263;27;20290;-76
2021/11/10 05:41:53;;;;;;;17.67;10.60;;;2.60;99.90;;;;;;5135666;27;20254;-76
2021/11/10 05:44:20;;;;;;;19.17;10.23;;;2.60;99.90;;;;;;5135123;27;20287;-77
2021/11/10 05:46:48;;;;;;;17.80;10.00;;;2.60;99.90;;;;;;5135497;27;20201;-76
2021/11/10 05:49:15;;;;;;;15.67;10.20;;;2.60;99.90;;;;;;5135419;27;20285;-76
2021/11/10 05:51:43;;;;;;;14.03;10.10;;;2.50;99.90;;;;;;5135404;27;20201;-77
2021/11/10 05:54:10;;;;;;;18.70;10.60;;;2.40;99.90;;;;;;5135652;27;20305;-76
2021/11/10 05:56:39;;;;;;;18.83;10.80;;;2.30;99.90;;;;;;5135092;27;20626;-76
2021/11/10 05:59:08;;;;;;;17.07;10.37;;;2.40;99.90;;;;;;5135395;27;20651;-76
2021/11/10 06:01:36;;;;;;;14.83;10.13;;;2.40;99.90;;;;;;5134710;27;20204;-77
2021/11/10 06:04:05;;;;;;;14.63;9.67;;;2.30;99.90;;;;;;5135866;27;20197;-76
2021/11/10 06:06:32;;;;;;;18.83;10.60;;;2.30;99.90;;;;;;5140067;27;20229;-76
2021/11/10 06:08:59;;;;;;;18.97;10.93;;;2.30;99.90;;;;;;5135190;27;20251;-75
2021/11/10 06:11:26;;;;;;;18.17;11.43;;;2.30;99.90;;;;;;5135164;27;20622;-75
2021/11/10 06:13:53;;;;;;;19.07;11.97;;;2.40;99.90;;;;;;5134681;27;20241;-75
2021/11/10 06:16:20;;;;;;;17.50;12.07;;;2.50;99.90;;;;;;5133771;27;20596;-76
2021/11/10 06:18:48;;;;;;;18.07;11.23;;;2.40;99.90;;;;;;5135012;27;20290;-76
2021/11/10 06:21:16;;;;;;;16.50;11.33;;;2.30;99.90;;;;;;5134443;27;20201;-81
2021/11/10 06:23:43;;;;;;;20.03;11.43;;;2.20;99.90;;;;;;5134677;27;20202;-88
2021/11/10 06:26:10;;;;;;;18.10;12.13;;;2.20;99.90;;;;;;5137960;27;20846;-85
2021/11/10 06:28:37;;;;;;;18.00;11.17;;;2.20;99.90;;;;;;5135982;27;20252;-85
2021/11/10 06:31:05;;;;;;;18.87;11.33;;;2.10;99.90;;;;;;5133846;27;20201;-85
2021/11/10 06:33:32;;;;;;;17.80;12.13;;;2.00;99.90;;;;;;5135559;27;20197;-86
2021/11/10 06:35:59;;;;;;;19.03;11.93;;;2.00;99.90;;;;;;5135680;27;20668;-86
2021/11/10 06:38:30;;;;;;;21.17;12.77;;;2.10;99.90;;;;;;5133487;27;20229;-84
2021/11/10 06:40:57;;;;;;;21.20;12.87;;;2.10;99.90;;;;;;5130726;27;20193;-89
2021/11/10 06:43:26;;;;;;;22.00;13.53;;;2.20;99.90;;;;;;5134806;27;20652;-86
2021/11/10 06:45:53;;;;;;;20.73;12.80;;;2.10;99.90;;;;;;5134679;27;20201;-83
2021/11/10 06:48:21;;;;;;;23.67;12.50;;;2.00;99.90;;;;;;5125483;27;20229;-83
2021/11/10 06:50:48;;;;;;;20.57;12.20;;;2.00;99.90;;;;;;5125022;27;20202;-84
2021/11/10 06:53:15;;;;;;;17.70;11.50;;;1.90;99.90;;;;;;5127674;27;21055;-82
2021/11/10 06:55:44;;;;;;;18.20;11.93;;;1.90;99.90;;;;;;5133234;27;20255;-82
2021/11/10 06:58:11;;;;;;;18.87;11.87;;;2.00;99.90;;;;;;5132562;27;20211;-80
2021/11/10 07:00:40;;;;;;;19.53;12.10;;;2.00;99.90;;;;;;5132959;27;20791;-80
2021/11/10 07:03:09;;;;;;;19.10;11.97;;;1.90;99.90;;;;;;5133058;27;20257;-81
2021/11/10 07:05:36;;;;;;;20.80;12.87;;;1.90;99.90;;;;;;5133565;27;20266;-81
2021/11/10 07:08:03;;;;;;;18.90;12.87;;;2.00;99.90;;;;;;5143116;27;20633;-81
2021/11/10 07:10:30;;;;;;;19.67;12.87;;;1.90;99.90;;;;;;5133154;27;20225;-83
2021/11/10 07:12:59;;;;;;;21.17;12.47;;;1.90;99.90;;;;;;5133325;27;20280;-81
2021/11/10 07:15:26;;;;;;;22.70;12.70;;;2.00;99.90;;;;;;5133461;27;20271;-84
2021/11/10 07:17:53;;;;;;;21.60;12.77;;;2.10;99.90;;;;;;5133622;27;20201;-86
2021/11/10 07:20:21;;;;;;;21.73;12.63;;;2.10;99.90;;;;;;5133832;27;20612;-84
2021/11/10 07:22:48;;;;;;;28.73;15.20;;;2.10;99.90;;;;;;5132159;27;20235;-83
2021/11/10 07:25:16;;;;;;;25.80;14.87;;;2.00;99.90;;;;;;5132239;27;20237;-83
2021/11/10 07:27:43;;;;;;;30.63;16.63;;;2.20;99.90;;;;;;5133485;27;20330;-85
2021/11/10 07:30:13;;;;;;;30.50;16.53;;;2.40;99.90;;;;;;5137506;27;20688;-82
2021/11/10 07:32:40;;;;;;;28.00;18.47;;;2.70;99.90;;;;;;5133673;27;20233;-85
2021/11/10 07:35:10;;;;;;;33.77;19.80;;;3.00;99.90;;;;;;5134067;27;20305;-84
2021/11/10 07:37:38;;;;;;;33.23;18.67;;;3.50;99.90;;;;;;5140683;27;20231;-84
2021/11/10 07:40:06;;;;;;;32.23;19.00;;;4.00;99.90;;;;;;5134023;27;20636;-87
2021/11/10 07:42:34;;;;;;;23.90;16.07;;;4.40;99.90;;;;;;5134121;27;20196;-84
2021/11/10 07:45:07;;;;;;;20.67;13.07;;;4.80;99.90;;;;;;5138741;27;20781;-82
2021/11/10 07:47:41;;;;;;;17.40;11.77;;;4.80;99.90;;;;;;5154891;27;20200;-84
2021/11/10 07:50:10;;;;;;;19.37;12.27;;;5.20;99.90;;;;;;5135041;27;20197;-86
2021/11/10 07:52:37;;;;;;;17.77;12.50;;;5.80;99.90;;;;;;5149899;27;20220;-82
2021/11/10 07:55:05;;;;;;;20.37;11.03;;;6.30;99.90;;;;;;5153445;27;20260;-81
2021/11/10 07:57:33;;;;;;;15.40;10.13;;;6.70;99.90;;;;;;5135402;27;20203;-84
2021/11/10 08:00:01;;;;;;;13.83;9.73;;;7.10;99.90;;;;;;5132001;27;20206;-83
2021/11/10 08:02:28;;;;;;;19.30;9.73;;;7.20;99.90;;;;;;5132101;27;20198;-84
2021/11/10 08:04:56;;;;;;;16.80;9.70;;;7.80;99.90;;;;;;5147207;27;20283;-84
2021/11/10 08:07:23;;;;;;;14.57;9.67;;;7.70;99.90;;;;;;5140537;27;20224;-82
2021/11/10 08:09:50;;;;;;;14.53;9.13;;;7.80;99.90;;;;;;5133070;27;20280;-85
2021/11/10 08:12:17;;;;;;;17.77;9.33;;;8.10;99.90;;;;;;5133192;27;20552;-85
2021/11/10 08:14:44;;;;;;;26.43;9.43;;;8.80;99.90;;;;;;5133709;27;20284;-84
2021/11/10 08:17:11;;;;;;;20.50;9.87;;;9.20;99.90;;;;;;5133299;27;20638;-87
2021/11/10 08:19:38;;;;;;;22.77;12.97;;;9.50;99.90;;;;;;5133772;27;20235;-82
2021/11/10 08:22:06;;;;;;;21.77;12.03;;;9.80;99.90;;;;;;5138748;27;20229;-87
2021/11/10 08:24:33;;;;;;;22.10;11.90;;;10.10;99.90;;;;;;5147654;27;20204;-85
2021/11/10 08:27:01;;;;;;;19.23;11.97;;;10.40;99.90;;;;;;5133364;27;20189;-87
2021/11/10 08:29:28;;;;;;;14.30;11.00;;;10.50;99.90;;;;;;5093078;28;20255;-86
2021/11/10 08:31:55;;;;;;;16.73;11.10;;;11.00;99.90;;;;;;5102651;28;20193;-85
2021/11/10 08:34:22;;;;;;;15.00;10.20;;;11.40;99.90;;;;;;5112896;28;20236;-87
2021/11/10 08:36:48;;;;;;;17.33;10.30;;;11.90;99.90;;;;;;5113240;28;20771;-86
2021/11/10 08:39:17;;;;;;;16.93;11.90;;;12.10;99.90;;;;;;5107805;28;20281;-85
2021/11/10 08:41:47;;;;;;;19.33;12.07;;;11.80;99.90;;;;;;5092341;28;20623;-85
2021/11/10 08:44:14;;;;;;;16.97;10.83;;;12.10;99.90;;;;;;5093707;28;20187;-85
2021/11/10 08:46:42;;;;;;;20.23;13.87;;;12.10;99.90;;;;;;5091701;28;20198;-88
2021/11/10 08:49:10;;;;;;;16.87;12.30;;;12.10;99.90;;;;;;5074219;28;20365;-85
2021/11/10 08:51:38;;;;;;;15.63;12.80;;;11.60;99.90;;;;;;5092377;28;20271;-87
2021/11/10 08:54:06;;;;;;;15.50;11.95;;;11.50;99.90;;;;;;5091529;28;20202;-89
2021/11/10 08:56:35;;;;;;;15.63;11.57;;;11.90;99.90;;;;;;5092885;28;20257;-87
2021/11/10 08:59:03;;;;;;;12.52;10.80;;;12.20;99.90;;;;;;5104148;28;20198;-90
2021/11/10 09:01:31;;;;;;;15.38;10.20;;;12.10;99.90;;;;;;5092661;28;20190;-90
2021/11/10 09:03:58;;;;;;;15.77;10.40;;;11.70;99.90;;;;;;5093176;28;20657;-93
2021/11/10 09:06:25;;;;;;;15.87;9.93;;;11.70;99.90;;;;;;5095838;28;20198;-86
2021/11/10 09:08:52;;;;;;;12.48;9.13;;;11.60;99.90;;;;;;5096556;28;20619;-88
2021/11/10 09:11:19;;;;;;;11.73;9.77;;;11.20;99.90;;;;;;5096194;28;20230;-86
2021/11/10 09:13:48;;;;;;;14.23;9.70;;;11.30;99.90;;;;;;5096543;28;20739;-91
2021/11/10 09:16:15;;;;;;;16.00;10.47;;;11.50;99.90;;;;;;5096728;28;20301;-92
2021/11/10 09:18:42;;;;;;;13.20;9.77;;;12.00;99.90;;;;;;5096051;28;20233;-91
2021/11/10 09:21:11;;;;;;;17.40;9.90;;;12.50;99.90;;;;;;5116513;28;20297;-89
2021/11/10 09:23:39;;;;;;;15.07;9.07;;;12.90;99.90;;;;;;5100968;27;20259;-92
2021/11/10 09:26:06;;;;;;;11.93;8.20;;;13.50;99.90;;;;;;5096427;28;20202;-90
2021/11/10 09:28:35;;;;;;;11.53;8.20;;;13.60;99.90;;;;;;5122041;27;20650;-88
2021/11/10 09:31:04;;;;;;;11.13;7.80;;;13.40;99.90;;;;;;5136808;27;20193;-86
2021/11/10 09:33:34;;;;;;;10.97;8.33;;;13.60;99.90;;;;;;5136675;27;20197;-86
2021/11/10 09:36:03;;;;;;;15.10;9.20;;;13.60;99.90;;;;;;5137085;27;20212;-90
2021/11/10 09:38:30;;;;;;;13.57;9.93;;;14.10;99.90;;;;;;5137038;27;20228;-86
2021/11/10 09:41:00;;;;;;;13.80;8.27;;;14.70;99.90;;;;;;5136622;27;20201;-88
2021/11/10 09:43:31;;;;;;;13.60;10.10;;;14.60;99.90;;;;;;5146210;27;20679;-86
2021/11/10 09:45:58;;;;;;;13.07;8.90;;;14.60;99.90;;;;;;5141474;27;20214;-88
2021/11/10 09:48:27;;;;;;;13.57;9.20;;;14.80;99.90;;;;;;5136686;27;20225;-88
2021/11/10 09:50:55;;;;;;;15.67;9.90;;;14.40;99.90;;;;;;5136485;27;20362;-85
2021/11/10 09:53:22;;;;;;;14.33;10.17;;;14.50;99.90;;;;;;5155138;27;20248;-87
2021/11/10 09:55:50;;;;;;;17.35;10.75;;;14.90;99.90;;;;;;5150463;27;20263;-85
2021/11/10 09:58:18;;;;;;;16.30;10.30;;;15.80;99.90;;;;;;5151151;27;20192;-88
2021/11/10 10:00:49;;;;;;;15.50;10.82;;;16.10;99.90;;;;;;5136197;27;20288;-86
2021/11/10 10:03:20;;;;;;;15.43;10.88;;;15.80;99.90;;;;;;5130959;27;20201;-85
2021/11/10 10:05:51;;;;;;;14.10;10.40;;;15.70;99.90;;;;;;5134885;27;20323;-86
2021/11/10 10:08:19;;;;;;;14.75;10.02;;;16.00;99.90;;;;;;5135018;27;20201;-88
2021/11/10 10:10:47;;;;;;;13.75;10.38;;;16.10;99.90;;;;;;5136129;27;20201;-85
2021/11/10 10:13:18;;;;;;;17.20;10.80;;;16.60;99.90;;;;;;5131973;27;20280;-85
2021/11/10 10:15:45;;;;;;;17.02;9.75;;;16.80;99.90;;;;;;5134111;27;20236;-84
2021/11/10 10:18:15;;;;;;;15.80;9.27;;;17.50;99.90;;;;;;5137837;27;20613;-85
2021/11/10 10:20:42;;;;;;;11.65;9.13;;;18.50;99.90;;;;;;5131546;27;20193;-85
2021/11/10 10:23:13;;;;;;;13.73;8.95;;;17.90;94.00;;;;;;5133761;27;20193;-85
2021/11/10 10:25:44;;;;;;;15.55;9.43;;;17.30;82.40;;;;;;5135511;27;20701;-86
2021/11/10 10:28:13;;;;;;;13.45;8.65;;;16.50;90.90;;;;;;5140049;27;20225;-84
2021/11/10 10:30:43;;;;;;;12.98;9.65;;;16.20;95.70;;;;;;5134653;27;20668;-87
2021/11/10 10:33:13;;;;;;;11.90;9.45;;;16.80;94.90;;;;;;5135819;27;20201;-84
2021/11/10 10:35:44;;;;;;;16.30;9.95;;;16.20;96.00;;;;;;5132368;27;20312;-82
2021/11/10 10:38:14;;;;;;;13.50;10.00;;;15.70;99.90;;;;;;5133802;27;20269;-83
2021/11/10 10:40:44;;;;;;;15.23;10.00;;;15.40;99.90;;;;;;5134445;27;20968;-86
2021/11/10 10:43:11;;;;;;;15.73;10.00;;;15.50;99.90;;;;;;5133468;27;20279;-90
2021/11/10 10:45:44;;;;;;;14.63;8.93;;;16.40;99.90;;;;;;5134958;27;20694;-86
2021/11/10 10:48:13;;;;;;;12.68;9.50;;;17.20;92.20;;;;;;5134601;27;20225;-87
2021/11/10 10:50:43;;;;;;;14.25;8.45;;;16.80;87.60;;;;;;5135926;27;20228;-87
2021/11/10 10:53:14;;;;;;;14.85;9.68;;;16.30;92.20;;;;;;5134036;27;20197;-86
2021/11/10 10:55:43;;;;;;;17.92;9.45;;;15.90;92.10;;;;;;5134510;27;20282;-85
2021/11/10 10:58:13;;;;;;;13.65;9.02;;;15.70;95.10;;;;;;5133623;27;20225;-84
2021/11/10 11:00:41;;;;;;;15.63;9.95;;;16.00;90.70;;;;;;5133697;27;20356;-84
2021/11/10 11:03:29;;;;;;;13.30;8.60;;;17.00;95.20;;;;;;5134811;27;20201;-84
2021/11/10 11:05:57;;;;;;;11.57;8.18;;;18.60;68.70;;;;;;5131065;27;20193;-83
2021/11/10 11:08:39;;;;;;;13.55;8.38;;;18.90;56.80;;;;;;5137217;27;20193;-85
2021/11/10 11:11:26;;;;;;;11.02;7.47;;;17.70;56.90;;;;;;5130832;27;20286;-85
2021/11/10 11:13:56;;;;;;;14.32;8.85;;;17.20;66.20;;;;;;5136885;27;20683;-84
2021/11/10 11:16:28;;;;;;;12.20;8.38;;;17.30;71.40;;;;;;5137059;27;20212;-83
2021/11/10 11:19:16;;;;;;;14.32;8.05;;;17.00;75.50;;;;;;5133730;27;20246;-86
2021/11/10 11:21:54;;;;;;;11.27;7.93;;;16.40;86.80;;;;;;5133570;27;20200;-88
2021/11/10 11:24:34;;;;;;;10.90;8.05;;;17.40;83.90;;;;;;5130634;27;20225;-84
2021/11/10 11:27:19;;;;;;;16.20;8.02;;;17.00;81.00;;;;;;5132755;27;20272;-84
2021/11/10 11:29:53;;;;;;;16.23;8.27;;;17.70;65.80;;;;;;5136654;27;20229;-85
2021/11/10 11:32:25;;;;;;;14.73;8.93;;;17.90;75.50;;;;;;5133124;27;20214;-85
2021/11/10 11:34:54;;;;;;;14.85;8.38;;;16.50;81.60;;;;;;5130735;27;20197;-88
2021/11/10 11:37:22;;;;;;;12.50;8.05;;;16.00;93.50;;;;;;5129017;27;20213;-88
2021/11/10 11:39:51;;;;;;;11.32;8.38;;;16.00;96.50;;;;;;5132549;27;20703;-87
2021/11/10 11:42:18;;;;;;;13.60;8.10;;;16.80;94.50;;;;;;5133699;27;20600;-88
2021/11/10 11:44:46;;;;;;;11.52;6.53;;;18.10;82.10;;;;;;5133071;27;20676;-89
2021/11/10 11:47:18;;;;;;;13.65;8.07;;;17.90;71.50;;;;;;5132877;27;20205;-87
2021/11/10 11:49:45;;;;;;;14.43;7.60;;;17.30;77.00;;;;;;5131750;27;20225;-89
2021/11/10 11:52:14;;;;;;;11.05;7.32;;;17.00;90.10;;;;;;5133610;27;20192;-90
2021/11/10 11:54:44;;;;;;;12.70;8.05;;;16.60;85.30;;;;;;5133451;27;20197;-90
2021/11/10 11:57:17;;;;;;;11.10;6.97;;;16.70;93.80;;;;;;5132943;27;20281;-88
2021/11/10 11:59:47;;;;;;;15.60;7.30;;;17.30;90.90;;;;;;5133868;27;20212;-89
2021/11/10 12:02:22;;;;;;;11.45;7.55;;;17.40;90.30;;;;;;5132912;27;20224;-89
2021/11/10 12:04:49;;;;;;;10.32;6.93;;;17.60;85.10;;;;;;5139628;27;20249;-88
2021/11/10 12:07:42;;;;;;;11.45;7.30;;;17.80;77.10;;;;;;5132973;27;20208;-88
2021/11/10 12:10:43;;;;;;;14.18;7.45;;;17.20;85.10;;;;;;5132954;27;20193;-88
2021/11/10 12:13:27;;;;;;;15.70;7.93;;;16.80;93.90;;;;;;5129908;27;20239;-88
2021/11/10 12:16:18;;;;;;;13.40;7.93;;;16.10;96.90;;;;;;5131079;27;20240;-88
2021/11/10 12:19:01;;;;;;;11.63;7.68;;;16.60;97.20;;;;;;5131968;27;20605;-89
2021/11/10 12:21:34;;;;;;;12.93;7.18;;;16.40;93.00;;;;;;5133429;27;20221;-88
2021/11/10 12:24:13;;;;;;;11.93;6.82;;;17.60;86.50;;;;;;5133201;27;20216;-88
2021/11/10 12:27:13;;;;;;;10.65;6.57;;;17.50;84.40;;;;;;5132716;27;20279;-89
2021/11/10 12:30:00;;;;;;;12.20;6.78;;;17.30;82.70;;;;;;5133233;27;20272;-91
2021/11/10 12:32:57;;;;;;;10.63;6.13;;;16.80;97.50;;;;;;5130844;27;20213;-89
2021/11/10 12:35:33;;;;;;;10.20;5.95;;;16.90;97.40;;;;;;5128979;27;20275;-86
2021/11/10 12:38:02;;;;;;;9.70;6.05;;;17.00;91.10;;;;;;5130923;27;20232;-84
2021/11/10 12:40:32;;;;;;;11.07;6.40;;;16.50;96.30;;;;;;5120853;27;20197;-85
2021/11/10 12:43:13;;;;;;;13.45;6.45;;;16.90;91.80;;;;;;5131480;27;20200;-88
2021/11/10 12:45:44;;;;;;;11.38;6.40;;;16.90;93.30;;;;;;5132491;27;20333;-87